createdAt,value
2018-06-24T00:00:05.583Z,4.00
2018-06-24T00:02:33.458Z,4.00
2018-06-24T00:05:01.144Z,4.00
2018-06-24T00:07:28.748Z,3.60
2018-06-24T00:09:56.611Z,5.20
2018-06-24T00:12:25.167Z,4.40
2018-06-24T00:14:53.367Z,4.00
2018-06-24T00:17:21.530Z,4.00
2018-06-24T00:19:49.142Z,3.80
2018-06-24T00:22:16.737Z,4.80
2018-06-24T00:24:44.780Z,3.20
2018-06-24T00:27:12.416Z,4.00
2018-06-24T00:29:40.040Z,3.40
2018-06-24T00:32:07.903Z,4.00
2018-06-24T00:34:36.152Z,3.40
2018-06-24T00:37:03.753Z,3.00
2018-06-24T00:39:31.368Z,4.00
2018-06-24T00:41:58.980Z,4.80
2018-06-24T00:44:26.871Z,3.00
2018-06-24T00:46:54.484Z,3.80
2018-06-24T00:49:22.087Z,3.60
2018-06-24T00:51:50.003Z,3.80
2018-06-24T00:54:17.594Z,4.00
2018-06-24T00:56:45.219Z,3.00
2018-06-24T00:59:13.087Z,4.00
2018-06-24T01:01:40.716Z,4.00
2018-06-24T01:04:08.370Z,4.80
2018-06-24T01:06:36.986Z,3.80
2018-06-24T01:09:04.746Z,4.00
2018-06-24T01:11:32.389Z,4.40
2018-06-24T01:14:00.266Z,4.80
2018-06-24T01:16:28.470Z,4.40
2018-06-24T01:18:56.083Z,4.00
2018-06-24T01:21:24.149Z,5.60
2018-06-24T01:23:51.808Z,6.00
2018-06-24T01:26:19.415Z,2.60
2018-06-24T01:28:47.451Z,3.20
2018-06-24T01:31:15.282Z,4.80
2018-06-24T01:33:43.115Z,4.00
2018-06-24T01:36:12.665Z,3.60
2018-06-24T01:38:40.288Z,5.20
2018-06-24T01:41:08.545Z,6.00
2018-06-24T01:43:36.516Z,4.00
2018-06-24T01:46:04.113Z,3.80
2018-06-24T01:48:31.718Z,3.20
2018-06-24T01:50:59.707Z,1.00
2018-06-24T01:53:27.329Z,3.80
2018-06-24T01:55:54.934Z,4.00
2018-06-24T01:58:22.812Z,3.80
2018-06-24T02:00:50.416Z,4.40
2018-06-24T02:03:18.735Z,4.00
2018-06-24T02:05:46.606Z,4.40
2018-06-24T02:08:14.223Z,6.00
2018-06-24T02:10:41.826Z,6.00
2018-06-24T02:13:09.694Z,4.00
2018-06-24T02:15:37.370Z,5.60
2018-06-24T02:18:04.999Z,4.00
2018-06-24T02:20:32.867Z,4.00
2018-06-24T02:23:00.502Z,3.40
2018-06-24T02:25:28.098Z,6.60
2018-06-24T02:27:56.088Z,3.80
2018-06-24T02:30:23.696Z,4.00
2018-06-24T02:32:51.300Z,6.80
2018-06-24T02:35:18.895Z,5.20
2018-06-24T02:37:46.842Z,6.20
2018-06-24T02:40:14.443Z,7.00
2018-06-24T02:42:42.048Z,6.40
2018-06-24T02:45:10.166Z,7.80
2018-06-24T02:47:37.767Z,6.80
2018-06-24T02:50:05.410Z,5.20
2018-06-24T02:52:32.998Z,7.80
2018-06-24T02:55:01.558Z,6.00
2018-06-24T02:57:33.396Z,7.00
2018-06-24T03:00:01.020Z,6.00
2018-06-24T03:02:29.999Z,6.80
2018-06-24T03:04:57.677Z,6.00
2018-06-24T03:07:25.421Z,6.00
2018-06-24T03:09:53.291Z,5.20
2018-06-24T03:12:21.267Z,6.60
2018-06-24T03:14:48.886Z,6.00
2018-06-24T03:17:16.896Z,5.20
2018-06-24T03:19:44.495Z,4.40
2018-06-24T03:22:13.355Z,6.40
2018-06-24T03:24:40.967Z,6.00
2018-06-24T03:27:08.969Z,6.00
2018-06-24T03:29:37.598Z,4.00
2018-06-24T03:32:05.216Z,5.20
2018-06-24T03:34:33.287Z,3.40
2018-06-24T03:37:00.878Z,6.60
2018-06-24T03:39:28.510Z,4.80
2018-06-24T03:41:56.135Z,6.00
2018-06-24T03:44:24.017Z,5.20
2018-06-24T03:46:51.650Z,8.60
2018-06-24T03:49:19.239Z,7.00
2018-06-24T03:51:47.043Z,4.00
2018-06-24T03:54:14.925Z,7.40
2018-06-24T03:56:42.531Z,8.20
2018-06-24T03:59:10.127Z,6.60
2018-06-24T04:01:38.016Z,6.00
2018-06-24T04:04:05.623Z,7.40
2018-06-24T04:06:33.250Z,6.00
2018-06-24T04:09:01.227Z,6.00
2018-06-24T04:11:28.980Z,7.00
2018-06-24T04:13:56.595Z,6.00
2018-06-24T04:16:24.228Z,6.00
2018-06-24T04:18:53.081Z,6.40
2018-06-24T04:21:20.692Z,6.00
2018-06-24T04:23:49.235Z,7.00
2018-06-24T04:26:16.848Z,3.40
2018-06-24T04:28:44.749Z,4.00
2018-06-24T04:31:12.632Z,6.00
2018-06-24T04:33:40.430Z,5.20
2018-06-24T04:36:08.044Z,4.00
2018-06-24T04:38:35.932Z,7.00
2018-06-24T04:41:03.671Z,6.00
2018-06-24T04:43:31.307Z,7.80
2018-06-24T04:46:00.089Z,6.80
2018-06-24T04:48:28.160Z,7.00
2018-06-24T04:50:55.766Z,6.00
2018-06-24T04:53:23.518Z,4.00
2018-06-24T04:55:51.398Z,7.00
2018-06-24T04:58:19.046Z,6.80
2018-06-24T05:00:46.672Z,7.80
2018-06-24T05:03:14.343Z,5.20
2018-06-24T05:05:42.207Z,4.40
2018-06-24T05:08:09.810Z,6.40
2018-06-24T05:10:37.425Z,7.40
2018-06-24T05:13:06.177Z,7.00
2018-06-24T05:15:33.774Z,5.60
2018-06-24T05:18:01.393Z,6.60
2018-06-24T05:20:28.986Z,6.20
2018-06-24T05:22:56.862Z,8.60
2018-06-24T05:25:24.526Z,6.60
2018-06-24T05:27:52.127Z,7.00
2018-06-24T05:30:19.736Z,7.00
2018-06-24T05:32:47.686Z,6.60
2018-06-24T05:35:15.304Z,7.00
2018-06-24T05:37:43.021Z,7.00
2018-06-24T05:40:11.939Z,8.60
2018-06-24T05:42:40.055Z,6.60
2018-06-24T05:45:07.767Z,8.20
2018-06-24T05:47:35.657Z,7.00
2018-06-24T05:50:03.579Z,5.60
2018-06-24T05:52:31.239Z,9.00
2018-06-24T05:54:58.861Z,7.80
2018-06-24T05:57:26.472Z,6.60
2018-06-24T05:59:54.376Z,7.40
2018-06-24T06:02:21.980Z,6.80
2018-06-24T06:04:49.611Z,7.80
2018-06-24T06:07:17.517Z,8.60
2018-06-24T06:09:45.170Z,8.60
2018-06-24T06:12:12.791Z,10.00
2018-06-24T06:14:40.706Z,7.00
2018-06-24T06:17:10.657Z,7.40
2018-06-24T06:19:38.324Z,7.00
2018-06-24T06:22:05.930Z,9.40
2018-06-24T06:24:33.891Z,9.00
2018-06-24T06:27:01.546Z,8.60
2018-06-24T06:29:29.156Z,6.00
2018-06-24T06:31:58.720Z,7.00
2018-06-24T06:34:27.951Z,7.00
2018-06-24T06:36:55.571Z,7.40
2018-06-24T06:39:23.435Z,6.00
2018-06-24T06:41:51.055Z,7.00
2018-06-24T06:44:18.646Z,6.20
2018-06-24T06:46:47.640Z,6.80
2018-06-24T06:49:15.246Z,6.00
2018-06-24T06:51:42.868Z,5.60
2018-06-24T06:54:10.502Z,4.00
2018-06-24T06:56:38.427Z,6.80
2018-06-24T06:59:09.614Z,6.00
2018-06-24T07:01:37.229Z,5.60
2018-06-24T07:04:05.143Z,5.20
2018-06-24T07:06:32.778Z,6.00
2018-06-24T07:09:00.435Z,5.20
2018-06-24T07:11:28.319Z,6.00
2018-06-24T07:13:55.906Z,4.00
2018-06-24T07:16:23.540Z,5.60
2018-06-24T07:18:51.392Z,3.80
2018-06-24T07:21:20.480Z,4.40
2018-06-24T07:23:48.614Z,5.60
2018-06-24T07:26:16.487Z,6.20
2018-06-24T07:28:44.105Z,5.60
2018-06-24T07:31:11.791Z,6.60
2018-06-24T07:33:40.224Z,7.00
2018-06-24T07:36:08.516Z,6.00
2018-06-24T07:38:38.295Z,6.00
2018-06-24T07:41:08.514Z,6.00
2018-06-24T07:43:37.250Z,6.00
2018-06-24T07:46:05.697Z,6.00
2018-06-24T07:48:33.816Z,7.00
2018-06-24T07:51:01.436Z,9.00
2018-06-24T07:53:29.721Z,7.00
2018-06-24T07:55:58.487Z,9.80
2018-06-24T07:58:27.280Z,10.00
2018-06-24T08:00:54.901Z,9.00
2018-06-24T08:03:23.796Z,9.40
2018-06-24T08:05:51.416Z,8.60
2018-06-24T08:08:20.180Z,10.80
2018-06-24T08:10:48.103Z,10.40
2018-06-24T08:13:16.467Z,8.00
2018-06-24T08:15:45.710Z,8.60
2018-06-24T08:18:14.222Z,9.20
2018-06-24T08:20:41.848Z,10.00
2018-06-24T08:23:15.297Z,9.00
2018-06-24T08:25:43.218Z,9.80
2018-06-24T08:28:10.908Z,7.40
2018-06-24T08:30:38.708Z,9.40
2018-06-24T08:33:07.239Z,9.20
2018-06-24T08:35:34.890Z,9.80
2018-06-24T08:38:02.826Z,9.00
2018-06-24T08:40:30.707Z,9.80
2018-06-24T08:42:58.342Z,7.40
2018-06-24T08:45:25.966Z,8.60
2018-06-24T08:47:54.867Z,6.80
2018-06-24T08:50:22.475Z,5.60
2018-06-24T08:52:50.516Z,7.80
2018-06-24T08:55:19.816Z,4.00
2018-06-24T08:57:47.451Z,6.00
2018-06-24T09:00:15.672Z,6.00
2018-06-24T09:02:43.644Z,7.00
2018-06-24T09:05:11.275Z,4.00
2018-06-24T09:07:38.909Z,4.00
2018-06-24T09:10:06.771Z,3.00
2018-06-24T09:12:34.380Z,4.80
2018-06-24T09:15:02.875Z,4.00
2018-06-24T09:17:31.748Z,4.00
2018-06-24T09:19:59.341Z,4.00
2018-06-24T09:22:28.699Z,4.00
2018-06-24T09:24:57.404Z,3.00
2018-06-24T09:27:27.085Z,3.00
2018-06-24T09:29:55.346Z,3.00
2018-06-24T09:32:24.074Z,4.40
2018-06-24T09:34:52.290Z,3.00
2018-06-24T09:37:21.523Z,4.00
2018-06-24T09:39:53.338Z,3.00
2018-06-24T09:42:20.978Z,3.40
2018-06-24T09:44:48.573Z,3.40
2018-06-24T09:47:16.487Z,3.00
2018-06-24T09:49:49.626Z,4.00
2018-06-24T09:52:18.241Z,4.00
2018-06-24T09:54:47.229Z,4.00
2018-06-24T09:57:14.826Z,3.40
2018-06-24T09:59:42.427Z,3.00
2018-06-24T10:02:11.287Z,6.00
2018-06-24T10:04:38.911Z,4.00
2018-06-24T10:07:06.548Z,4.00
2018-06-24T10:09:34.497Z,4.00
2018-06-24T10:12:03.981Z,4.00
2018-06-24T10:14:31.563Z,4.60
2018-06-24T10:16:59.472Z,4.40
2018-06-24T10:19:27.718Z,4.80
2018-06-24T10:21:55.522Z,4.80
2018-06-24T10:24:23.410Z,4.20
2018-06-24T10:26:54.427Z,4.00
2018-06-24T10:29:28.362Z,5.20
2018-06-24T10:31:59.315Z,7.00
2018-06-24T10:34:27.601Z,5.20
2018-06-24T10:36:56.191Z,5.20
2018-06-24T10:39:25.024Z,5.00
2018-06-24T10:41:52.623Z,4.00
2018-06-24T10:44:20.447Z,4.00
2018-06-24T10:46:49.192Z,4.00
2018-06-24T10:49:19.497Z,5.00
2018-06-24T10:51:47.715Z,4.20
2018-06-24T10:54:18.751Z,6.00
2018-06-24T10:56:48.066Z,4.00
2018-06-24T10:59:15.709Z,4.40
2018-06-24T11:01:44.505Z,4.00
2018-06-24T11:04:14.873Z,3.60
2018-06-24T11:06:42.595Z,4.00
2018-06-24T11:09:12.886Z,4.00
2018-06-24T11:11:41.091Z,4.00
2018-06-24T11:14:10.127Z,5.00
2018-06-24T11:16:39.376Z,4.00
2018-06-24T11:19:09.722Z,2.80
2018-06-24T11:21:39.402Z,4.20
2018-06-24T11:24:08.143Z,5.00
2018-06-24T11:26:36.506Z,5.00
2018-06-24T11:29:04.242Z,3.80
2018-06-24T11:31:32.857Z,5.00
2018-06-24T11:34:01.021Z,7.00
2018-06-24T11:36:28.758Z,4.00
2018-06-24T11:38:56.647Z,5.00
2018-06-24T11:41:27.872Z,4.00
2018-06-24T11:43:55.497Z,3.20
2018-06-24T11:46:23.366Z,5.40
2018-06-24T11:48:52.230Z,4.00
2018-06-24T11:51:19.823Z,5.80
2018-06-24T11:53:47.958Z,3.60
2018-06-24T11:56:16.199Z,4.00
2018-06-24T11:58:43.791Z,4.20
2018-06-24T12:01:12.479Z,5.20
2018-06-24T12:03:40.092Z,4.00
2018-06-24T12:06:07.713Z,4.00
2018-06-24T12:08:36.702Z,3.60
2018-06-24T12:11:08.477Z,4.00
2018-06-24T12:13:37.503Z,4.00
2018-06-24T12:16:05.579Z,4.00
2018-06-24T12:18:34.223Z,4.00
2018-06-24T12:21:01.846Z,4.00
2018-06-24T12:23:29.739Z,4.00
2018-06-24T12:25:57.347Z,5.60
2018-06-24T12:28:26.767Z,6.20
2018-06-24T12:30:54.658Z,6.20
2018-06-24T12:33:24.343Z,5.60
2018-06-24T12:35:53.747Z,6.00
2018-06-24T12:38:22.591Z,4.80
2018-06-24T12:43:26.159Z,5.60
2018-06-24T12:45:55.491Z,3.60
2018-06-24T12:48:24.347Z,4.00
2018-06-24T12:50:52.578Z,6.00
2018-06-24T12:53:20.544Z,4.00
2018-06-24T12:55:50.590Z,3.60
2018-06-24T12:58:19.380Z,4.80
2018-06-24T13:00:49.856Z,3.80
2018-06-24T13:03:18.369Z,6.00
2018-06-24T13:05:46.762Z,4.40
2018-06-24T13:08:14.682Z,6.00
2018-06-24T13:10:42.283Z,4.40
2018-06-24T13:13:09.927Z,4.00
2018-06-24T13:15:38.404Z,4.00
2018-06-24T13:18:06.121Z,3.00
2018-06-24T13:20:34.272Z,5.20
2018-06-24T13:23:04.365Z,5.60
2018-06-24T13:25:33.688Z,4.00
2018-06-24T13:28:01.931Z,6.00
2018-06-24T13:30:29.844Z,4.80
2018-06-24T13:32:57.441Z,4.00
2018-06-24T13:35:26.459Z,6.00
2018-06-24T13:37:56.305Z,5.60
2018-06-24T13:40:24.780Z,6.00
2018-06-24T13:42:54.246Z,4.00
2018-06-24T13:45:23.028Z,6.20
2018-06-24T13:47:51.283Z,5.20
2018-06-24T13:50:20.107Z,5.60
2018-06-24T13:52:50.250Z,0.60
2018-06-24T13:55:17.858Z,6.80
2018-06-24T13:57:45.456Z,5.20
2018-06-24T14:00:14.979Z,7.00
2018-06-24T14:02:43.297Z,4.00
2018-06-24T14:05:10.919Z,5.20
2018-06-24T14:07:40.483Z,3.40
2018-06-24T14:10:08.349Z,4.00
2018-06-24T14:12:37.917Z,5.60
2018-06-24T14:15:06.599Z,1.00
2018-06-24T14:17:34.509Z,6.00
2018-06-24T14:20:02.655Z,7.00
2018-06-24T14:22:30.554Z,6.00
2018-06-24T14:24:59.315Z,3.60
2018-06-24T14:27:27.262Z,4.80
2018-06-24T14:29:56.144Z,5.60
2018-06-24T14:32:23.747Z,3.00
2018-06-24T14:34:54.511Z,3.80
2018-06-24T14:37:23.448Z,6.00
2018-06-24T14:39:51.308Z,6.00
2018-06-24T14:42:18.917Z,4.00
2018-06-24T14:44:53.192Z,6.00
2018-06-24T14:47:24.724Z,6.20
2018-06-24T14:49:52.610Z,4.40
2018-06-24T14:52:20.229Z,6.00
2018-06-24T14:54:47.840Z,4.80
2018-06-24T14:57:16.463Z,4.80
2018-06-24T14:59:45.660Z,6.80
2018-06-24T15:02:14.266Z,6.20
2018-06-24T15:04:43.084Z,5.40
2018-06-24T15:07:12.071Z,4.00
2018-06-24T15:09:39.672Z,6.40
2018-06-24T15:12:08.213Z,5.20
2018-06-24T15:14:35.805Z,6.00
2018-06-24T15:17:03.938Z,3.40
2018-06-24T15:19:32.456Z,3.40
2018-06-24T15:22:00.074Z,6.40
2018-06-24T15:24:27.675Z,8.20
2018-06-24T15:26:55.559Z,9.80
2018-06-24T15:29:24.759Z,6.80
2018-06-24T15:31:53.380Z,6.60
2018-06-24T15:34:22.143Z,6.60
2018-06-24T15:36:51.056Z,4.00
2018-06-24T15:39:19.632Z,7.00
2018-06-24T15:41:48.625Z,4.80
2018-06-24T15:44:17.555Z,6.20
2018-06-24T15:46:48.015Z,5.20
2018-06-24T15:49:16.691Z,6.00
2018-06-24T15:51:46.358Z,4.80
2018-06-24T15:54:14.958Z,4.00
2018-06-24T15:56:43.559Z,4.80
2018-06-24T15:59:12.302Z,4.00
2018-06-24T16:01:40.570Z,4.00
2018-06-24T16:04:09.286Z,6.60
2018-06-24T16:06:37.622Z,3.80
2018-06-24T16:09:06.134Z,5.60
2018-06-24T16:11:37.275Z,6.00
2018-06-24T16:14:08.349Z,4.00
2018-06-24T16:16:37.334Z,4.00
2018-06-24T16:19:06.706Z,4.00
2018-06-24T16:21:34.571Z,5.60
2018-06-24T16:24:02.720Z,4.00
2018-06-24T16:29:14.536Z,5.60
2018-06-24T16:31:43.659Z,5.60
2018-06-24T16:34:12.939Z,5.20
2018-06-24T16:36:41.260Z,4.00
2018-06-24T16:39:12.427Z,5.60
2018-06-24T16:41:40.878Z,6.00
2018-06-24T16:44:09.219Z,4.80
2018-06-24T16:46:37.866Z,5.60
2018-06-24T16:49:09.557Z,4.00
2018-06-24T16:51:37.189Z,6.40
2018-06-24T16:54:05.443Z,4.40
2018-06-24T16:56:34.218Z,6.00
2018-06-24T16:59:01.848Z,6.00
2018-06-24T17:01:30.409Z,5.60
2018-06-24T17:04:01.875Z,6.00
2018-06-24T17:06:29.531Z,6.40
2018-06-24T17:08:58.568Z,6.40
2018-06-24T17:11:26.475Z,7.00
2018-06-24T17:13:54.104Z,5.20
2018-06-24T17:16:23.988Z,6.00
2018-06-24T17:18:52.702Z,7.00
2018-06-24T17:21:20.335Z,6.40
2018-06-24T17:23:50.127Z,6.40
2018-06-24T17:26:19.332Z,5.60
2018-06-24T17:28:48.178Z,6.20
2018-06-24T17:31:16.625Z,6.00
2018-06-24T17:33:44.654Z,6.40
2018-06-24T17:36:19.707Z,6.00
2018-06-24T17:38:49.131Z,6.20
2018-06-24T17:41:22.967Z,6.00
2018-06-24T17:43:52.031Z,7.00
2018-06-24T17:46:20.707Z,6.00
2018-06-24T17:48:50.546Z,4.40
2018-06-24T17:51:18.790Z,5.20
2018-06-24T17:53:47.307Z,6.00
2018-06-24T17:56:15.338Z,6.00
2018-06-24T17:58:43.776Z,6.00
2018-06-24T18:01:14.289Z,5.20
2018-06-24T18:03:42.243Z,6.20
2018-06-24T18:06:09.913Z,6.40
2018-06-24T18:08:37.530Z,7.00
2018-06-24T18:11:06.520Z,6.60
2018-06-24T18:13:35.467Z,6.60
2018-06-24T18:16:03.083Z,5.20
2018-06-24T18:18:33.219Z,10.40
2018-06-24T18:21:01.771Z,14.80
2018-06-24T18:23:30.028Z,10.00
2018-06-24T18:25:59.380Z,8.20
2018-06-24T18:28:27.080Z,7.80
2018-06-24T18:30:55.252Z,6.60
2018-06-24T18:33:24.585Z,6.40
2018-06-24T18:35:55.115Z,6.80
2018-06-24T18:38:22.723Z,6.00
2018-06-24T18:40:51.512Z,4.40
2018-06-24T18:43:22.533Z,6.80
2018-06-24T18:45:50.927Z,6.00
2018-06-24T18:48:19.625Z,6.20
2018-06-24T18:50:47.500Z,5.20
2018-06-24T18:53:15.999Z,5.60
2018-06-24T18:55:45.318Z,6.60
2018-06-24T18:58:13.510Z,5.80
2018-06-24T19:00:42.356Z,4.80
2018-06-24T19:03:15.318Z,6.20
2018-06-24T19:05:44.280Z,5.00
2018-06-24T19:08:13.837Z,4.40
2018-06-24T19:10:42.555Z,6.00
2018-06-24T19:15:45.788Z,6.00
2018-06-24T19:18:13.939Z,6.00
2018-06-24T19:20:42.548Z,6.80
2018-06-24T19:23:11.091Z,6.00
2018-06-24T19:25:38.739Z,6.60
2018-06-24T19:28:06.331Z,7.00
2018-06-24T19:30:36.220Z,7.80
2018-06-24T19:33:05.596Z,5.60
2018-06-24T19:35:34.528Z,4.00
2018-06-24T19:38:08.425Z,5.60
2018-06-24T19:40:36.076Z,4.40
2018-06-24T19:43:04.303Z,6.00
2018-06-24T19:45:33.333Z,6.00
2018-06-24T19:48:06.404Z,6.20
2018-06-24T19:50:38.474Z,4.40
2018-06-24T19:53:06.528Z,4.80
2018-06-24T19:55:35.214Z,5.60
2018-06-24T19:58:04.214Z,6.80
2018-06-24T20:00:33.246Z,6.20
2018-06-24T20:03:01.835Z,6.60
2018-06-24T20:05:30.594Z,4.00
2018-06-24T20:07:58.656Z,4.80
2018-06-24T20:10:26.574Z,7.40
2018-06-24T20:12:54.519Z,6.00
2018-06-24T20:15:22.259Z,6.20
2018-06-24T20:17:51.318Z,6.00
2018-06-24T20:20:21.671Z,5.60
2018-06-24T20:22:50.446Z,4.40
2018-06-24T20:25:20.268Z,6.60
2018-06-24T20:27:50.429Z,5.20
2018-06-24T20:30:18.040Z,4.00
2018-06-24T20:32:45.667Z,3.20
2018-06-24T20:35:15.691Z,3.80
2018-06-24T20:37:43.375Z,4.00
2018-06-24T20:40:11.693Z,3.00
2018-06-24T20:42:39.576Z,4.00
2018-06-24T20:45:08.874Z,1.00
2018-06-24T20:47:38.567Z,0.20
2018-06-24T20:50:06.480Z,3.00
2018-06-24T20:52:34.711Z,1.80
2018-06-24T20:55:02.373Z,3.00
2018-06-24T20:57:31.736Z,3.00
2018-06-24T21:00:02.390Z,1.40
2018-06-24T21:02:30.210Z,3.00
2018-06-24T21:05:00.512Z,3.00
2018-06-24T21:07:32.439Z,3.80
2018-06-24T21:10:06.270Z,3.60
2018-06-24T21:12:35.699Z,3.00
2018-06-24T21:15:03.314Z,1.00
2018-06-24T21:17:31.332Z,2.60
2018-06-24T21:20:03.660Z,4.00
2018-06-24T21:22:31.890Z,3.00
2018-06-24T21:24:59.496Z,3.40
2018-06-24T21:27:30.442Z,3.00
2018-06-24T21:29:58.054Z,3.00
2018-06-24T21:32:25.644Z,4.00
2018-06-24T21:34:54.069Z,3.40
2018-06-24T21:37:21.720Z,4.00
2018-06-24T21:39:49.483Z,3.00
2018-06-24T21:42:20.246Z,3.00
2018-06-24T21:44:48.654Z,3.00
2018-06-24T21:47:17.378Z,2.60
2018-06-24T21:49:50.600Z,1.80
2018-06-24T21:52:18.207Z,1.00
2018-06-24T21:54:47.400Z,3.00
2018-06-24T21:57:16.554Z,2.60
2018-06-24T21:59:46.104Z,3.80
2018-06-24T22:02:13.715Z,3.20
2018-06-24T22:04:42.217Z,3.00
2018-06-24T22:07:11.598Z,3.60
2018-06-24T22:09:39.229Z,4.00
2018-06-24T22:12:06.840Z,2.60
2018-06-24T22:14:34.723Z,3.60
2018-06-24T22:17:02.333Z,4.80
2018-06-24T22:19:30.647Z,2.60
2018-06-24T22:21:58.570Z,3.60
2018-06-24T22:24:26.451Z,4.00
2018-06-24T22:26:54.115Z,3.40
2018-06-24T22:29:21.700Z,4.00
2018-06-24T22:31:50.735Z,3.80
2018-06-24T22:34:22.566Z,4.00
2018-06-24T22:36:51.139Z,1.00
2018-06-24T22:39:19.005Z,3.80
2018-06-24T22:41:46.626Z,3.40
2018-06-24T22:44:15.068Z,4.40
2018-06-24T22:46:42.935Z,5.20
2018-06-24T22:49:10.535Z,4.80
2018-06-24T22:51:42.486Z,4.00
2018-06-24T22:54:10.092Z,4.00
2018-06-24T22:56:39.639Z,3.20
2018-06-24T22:59:07.859Z,2.60
2018-06-24T23:01:35.972Z,5.20
2018-06-24T23:04:03.581Z,4.00
2018-06-24T23:06:31.516Z,4.00
2018-06-24T23:08:59.523Z,3.00
2018-06-24T23:11:27.332Z,3.20
2018-06-24T23:13:57.007Z,4.00
2018-06-24T23:16:25.345Z,3.00
2018-06-24T23:18:52.990Z,3.60
2018-06-24T23:21:20.927Z,3.00
2018-06-24T23:23:48.536Z,3.40
2018-06-24T23:26:16.347Z,1.80
2018-06-24T23:28:44.206Z,3.00
2018-06-24T23:31:12.378Z,1.80
2018-06-24T23:33:39.987Z,1.00
2018-06-24T23:36:10.582Z,3.00
2018-06-24T23:38:38.500Z,3.60
2018-06-24T23:41:06.288Z,3.00
2018-06-24T23:43:33.879Z,3.00
2018-06-24T23:46:01.779Z,4.40
2018-06-24T23:48:29.408Z,3.20
2018-06-24T23:50:57.963Z,3.00
2018-06-24T23:53:25.576Z,4.00
2018-06-24T23:55:53.490Z,3.20
2018-06-24T23:58:21.105Z,3.00
